sensor_id;sensor_type;location;lat;lon;timestamp;P1;durP1;ratioP1;P2;durP2;ratioP2
11699;SDS011;5906;51.660;6.674;2023-04-01T00:01:04;3.20;;;2.83;;
11699;SDS011;5906;51.660;6.674;2023-04-01T00:03:33;4.20;;;3.50;;
11699;SDS011;5906;51.660;6.674;2023-04-01T00:06:01;5.70;;;3.40;;
11699;SDS011;5906;51.660;6.674;2023-04-01T00:08:29;6.23;;;3.80;;
11699;SDS011;5906;51.660;6.674;2023-04-01T00:10:56;4.33;;;3.40;;
11699;SDS011;5906;51.660;6.674;2023-04-01T00:13:24;9.80;;;4.37;;
11699;SDS011;5906;51.660;6.674;2023-04-01T00:15:53;10.27;;;4.07;;
11699;SDS011;5906;51.660;6.674;2023-04-01T00:18:21;7.20;;;4.03;;
11699;SDS011;5906;51.660;6.674;2023-04-01T00:20:49;6.37;;;4.30;;
11699;SDS011;5906;51.660;6.674;2023-04-01T00:23:17;10.90;;;4.30;;
11699;SDS011;5906;51.660;6.674;2023-04-01T00:25:45;7.20;;;3.93;;
11699;SDS011;5906;51.660;6.674;2023-04-01T00:28:18;7.13;;;4.90;;
11699;SDS011;5906;51.660;6.674;2023-04-01T00:30:46;5.43;;;3.67;;
11699;SDS011;5906;51.660;6.674;2023-04-01T00:33:13;10.27;;;3.83;;
11699;SDS011;5906;51.660;6.674;2023-04-01T00:35:41;7.77;;;4.17;;
11699;SDS011;5906;51.660;6.674;2023-04-01T00:38:08;12.13;;;3.57;;
11699;SDS011;5906;51.660;6.674;2023-04-01T00:40:42;5.33;;;3.63;;
11699;SDS011;5906;51.660;6.674;2023-04-01T00:43:12;7.20;;;3.40;;
11699;SDS011;5906;51.660;6.674;2023-04-01T00:45:48;6.30;;;3.53;;
11699;SDS011;5906;51.660;6.674;2023-04-01T00:50:49;8.40;;;4.03;;
11699;SDS011;5906;51.660;6.674;2023-04-01T00:53:20;4.77;;;3.57;;
11699;SDS011;5906;51.660;6.674;2023-04-01T00:55:50;12.60;;;3.80;;
11699;SDS011;5906;51.660;6.674;2023-04-01T00:58:40;11.80;;;4.20;;
11699;SDS011;5906;51.660;6.674;2023-04-01T01:01:10;8.50;;;3.30;;
11699;SDS011;5906;51.660;6.674;2023-04-01T01:03:37;5.40;;;3.53;;
11699;SDS011;5906;51.660;6.674;2023-04-01T01:11:39;4.00;;;2.77;;
11699;SDS011;5906;51.660;6.674;2023-04-01T01:36:43;6.43;;;3.30;;
11699;SDS011;5906;51.660;6.674;2023-04-01T01:39:13;7.60;;;3.87;;
11699;SDS011;5906;51.660;6.674;2023-04-01T01:41:42;8.73;;;4.20;;
11699;SDS011;5906;51.660;6.674;2023-04-01T01:44:13;8.33;;;4.20;;
11699;SDS011;5906;51.660;6.674;2023-04-01T01:46:42;7.60;;;4.00;;
11699;SDS011;5906;51.660;6.674;2023-04-01T01:49:11;4.60;;;3.30;;
11699;SDS011;5906;51.660;6.674;2023-04-01T01:51:41;12.67;;;3.80;;
11699;SDS011;5906;51.660;6.674;2023-04-01T01:54:13;7.43;;;3.97;;
11699;SDS011;5906;51.660;6.674;2023-04-01T01:56:42;4.80;;;3.77;;
11699;SDS011;5906;51.660;6.674;2023-04-01T01:59:13;4.90;;;4.10;;
11699;SDS011;5906;51.660;6.674;2023-04-01T02:01:45;6.80;;;3.87;;
11699;SDS011;5906;51.660;6.674;2023-04-01T02:04:16;4.47;;;3.03;;
11699;SDS011;5906;51.660;6.674;2023-04-01T02:06:47;7.00;;;3.00;;
11699;SDS011;5906;51.660;6.674;2023-04-01T02:09:23;5.40;;;3.13;;
11699;SDS011;5906;51.660;6.674;2023-04-01T02:11:57;4.53;;;2.50;;
11699;SDS011;5906;51.660;6.674;2023-04-01T02:14:29;5.50;;;2.60;;
11699;SDS011;5906;51.660;6.674;2023-04-01T02:17:18;2.53;;;2.33;;
11699;SDS011;5906;51.660;6.674;2023-04-01T02:22:24;2.67;;;2.40;;
11699;SDS011;5906;51.660;6.674;2023-04-01T02:24:54;4.93;;;2.43;;
11699;SDS011;5906;51.660;6.674;2023-04-01T02:27:25;3.10;;;2.30;;
11699;SDS011;5906;51.660;6.674;2023-04-01T02:29:53;4.00;;;2.60;;
11699;SDS011;5906;51.660;6.674;2023-04-01T02:32:20;7.83;;;3.03;;
11699;SDS011;5906;51.660;6.674;2023-04-01T02:34:47;3.47;;;1.97;;
11699;SDS011;5906;51.660;6.674;2023-04-01T02:37:15;4.00;;;2.20;;
11699;SDS011;5906;51.660;6.674;2023-04-01T02:39:43;2.90;;;2.70;;
11699;SDS011;5906;51.660;6.674;2023-04-01T02:42:10;3.53;;;2.33;;
11699;SDS011;5906;51.660;6.674;2023-04-01T02:44:37;2.93;;;2.30;;
11699;SDS011;5906;51.660;6.674;2023-04-01T02:47:04;2.67;;;2.47;;
11699;SDS011;5906;51.660;6.674;2023-04-01T02:49:32;2.33;;;2.17;;
11699;SDS011;5906;51.660;6.674;2023-04-01T02:51:59;2.43;;;2.23;;
11699;SDS011;5906;51.660;6.674;2023-04-01T02:54:26;3.30;;;2.33;;
11699;SDS011;5906;51.660;6.674;2023-04-01T02:56:53;2.80;;;2.60;;
11699;SDS011;5906;51.660;6.674;2023-04-01T02:59:20;2.33;;;1.90;;
11699;SDS011;5906;51.660;6.674;2023-04-01T03:01:47;2.50;;;2.30;;
11699;SDS011;5906;51.660;6.674;2023-04-01T03:04:14;3.70;;;2.67;;
11699;SDS011;5906;51.660;6.674;2023-04-01T03:06:41;2.80;;;2.00;;
11699;SDS011;5906;51.660;6.674;2023-04-01T03:09:08;1.80;;;1.70;;
11699;SDS011;5906;51.660;6.674;2023-04-01T03:11:35;2.20;;;2.00;;
11699;SDS011;5906;51.660;6.674;2023-04-01T03:14:02;3.23;;;2.23;;
11699;SDS011;5906;51.660;6.674;2023-04-01T03:16:29;4.37;;;1.70;;
11699;SDS011;5906;51.660;6.674;2023-04-01T03:18:56;1.77;;;1.67;;
11699;SDS011;5906;51.660;6.674;2023-04-01T03:21:26;2.00;;;1.90;;
11699;SDS011;5906;51.660;6.674;2023-04-01T03:23:53;2.80;;;2.50;;
11699;SDS011;5906;51.660;6.674;2023-04-01T03:26:20;2.60;;;2.40;;
11699;SDS011;5906;51.660;6.674;2023-04-01T03:28:47;2.93;;;2.73;;
11699;SDS011;5906;51.660;6.674;2023-04-01T03:31:15;2.40;;;2.20;;
11699;SDS011;5906;51.660;6.674;2023-04-01T03:33:42;2.60;;;2.40;;
11699;SDS011;5906;51.660;6.674;2023-04-01T03:36:09;2.73;;;2.53;;
11699;SDS011;5906;51.660;6.674;2023-04-01T03:38:42;3.40;;;3.10;;
11699;SDS011;5906;51.660;6.674;2023-04-01T03:41:16;3.47;;;2.90;;
11699;SDS011;5906;51.660;6.674;2023-04-01T03:43:44;3.10;;;2.80;;
11699;SDS011;5906;51.660;6.674;2023-04-01T03:46:11;3.07;;;2.87;;
11699;SDS011;5906;51.660;6.674;2023-04-01T03:48:42;4.63;;;3.23;;
11699;SDS011;5906;51.660;6.674;2023-04-01T03:51:09;3.40;;;3.10;;
11699;SDS011;5906;51.660;6.674;2023-04-01T03:53:36;3.27;;;2.97;;
11699;SDS011;5906;51.660;6.674;2023-04-01T03:56:06;2.77;;;2.57;;
11699;SDS011;5906;51.660;6.674;2023-04-01T03:58:34;3.83;;;3.50;;
11699;SDS011;5906;51.660;6.674;2023-04-01T04:01:01;3.07;;;2.77;;
11699;SDS011;5906;51.660;6.674;2023-04-01T04:03:28;3.10;;;2.80;;
11699;SDS011;5906;51.660;6.674;2023-04-01T04:05:56;4.17;;;3.77;;
11699;SDS011;5906;51.660;6.674;2023-04-01T04:08:23;2.93;;;2.63;;
11699;SDS011;5906;51.660;6.674;2023-04-01T04:10:56;3.00;;;2.80;;
11699;SDS011;5906;51.660;6.674;2023-04-01T04:13:24;4.13;;;3.03;;
11699;SDS011;5906;51.660;6.674;2023-04-01T04:15:50;3.47;;;3.17;;
11699;SDS011;5906;51.660;6.674;2023-04-01T04:18:17;2.90;;;2.70;;
11699;SDS011;5906;51.660;6.674;2023-04-01T04:20:45;4.67;;;3.17;;
11699;SDS011;5906;51.660;6.674;2023-04-01T04:23:17;3.77;;;3.47;;
11699;SDS011;5906;51.660;6.674;2023-04-01T04:25:54;3.57;;;3.27;;
11699;SDS011;5906;51.660;6.674;2023-04-01T04:28:21;4.40;;;3.53;;
11699;SDS011;5906;51.660;6.674;2023-04-01T04:30:48;3.67;;;3.37;;
11699;SDS011;5906;51.660;6.674;2023-04-01T04:33:18;4.33;;;3.40;;
11699;SDS011;5906;51.660;6.674;2023-04-01T04:35:48;4.07;;;3.77;;
11699;SDS011;5906;51.660;6.674;2023-04-01T04:38:15;4.03;;;3.53;;
11699;SDS011;5906;51.660;6.674;2023-04-01T04:40:42;5.07;;;4.57;;
11699;SDS011;5906;51.660;6.674;2023-04-01T04:43:11;4.60;;;4.20;;
11699;SDS011;5906;51.660;6.674;2023-04-01T04:45:39;5.07;;;4.57;;
11699;SDS011;5906;51.660;6.674;2023-04-01T04:48:10;5.27;;;4.40;;
11699;SDS011;5906;51.660;6.674;2023-04-01T04:50:49;4.73;;;4.23;;
11699;SDS011;5906;51.660;6.674;2023-04-01T04:53:17;5.07;;;4.53;;
11699;SDS011;5906;51.660;6.674;2023-04-01T04:55:47;5.13;;;4.50;;
11699;SDS011;5906;51.660;6.674;2023-04-01T04:58:15;5.63;;;4.93;;
11699;SDS011;5906;51.660;6.674;2023-04-01T05:00:43;5.13;;;4.33;;
11699;SDS011;5906;51.660;6.674;2023-04-01T05:03:11;5.60;;;4.63;;
11699;SDS011;5906;51.660;6.674;2023-04-01T05:05:38;7.60;;;4.90;;
11699;SDS011;5906;51.660;6.674;2023-04-01T05:08:06;6.67;;;4.70;;
11699;SDS011;5906;51.660;6.674;2023-04-01T05:10:33;5.53;;;4.90;;
11699;SDS011;5906;51.660;6.674;2023-04-01T05:13:01;6.47;;;4.60;;
11699;SDS011;5906;51.660;6.674;2023-04-01T05:15:28;6.67;;;5.10;;
11699;SDS011;5906;51.660;6.674;2023-04-01T05:17:55;9.10;;;5.20;;
11699;SDS011;5906;51.660;6.674;2023-04-01T05:20:22;6.23;;;4.83;;
11699;SDS011;5906;51.660;6.674;2023-04-01T05:22:49;6.43;;;4.83;;
11699;SDS011;5906;51.660;6.674;2023-04-01T05:25:21;9.60;;;5.13;;
11699;SDS011;5906;51.660;6.674;2023-04-01T05:27:48;7.47;;;5.63;;
11699;SDS011;5906;51.660;6.674;2023-04-01T05:30:15;7.13;;;5.73;;
11699;SDS011;5906;51.660;6.674;2023-04-01T05:32:43;6.77;;;5.73;;
11699;SDS011;5906;51.660;6.674;2023-04-01T05:35:11;9.73;;;6.27;;
11699;SDS011;5906;51.660;6.674;2023-04-01T05:37:38;9.33;;;6.80;;
11699;SDS011;5906;51.660;6.674;2023-04-01T05:40:05;9.33;;;6.83;;
11699;SDS011;5906;51.660;6.674;2023-04-01T05:42:33;8.27;;;7.10;;
11699;SDS011;5906;51.660;6.674;2023-04-01T05:45:03;9.47;;;6.70;;
11699;SDS011;5906;51.660;6.674;2023-04-01T05:47:30;7.90;;;6.27;;
11699;SDS011;5906;51.660;6.674;2023-04-01T05:49:58;8.57;;;6.63;;
11699;SDS011;5906;51.660;6.674;2023-04-01T05:52:25;8.20;;;6.77;;
11699;SDS011;5906;51.660;6.674;2023-04-01T05:54:52;8.07;;;6.97;;
11699;SDS011;5906;51.660;6.674;2023-04-01T05:57:19;7.73;;;6.60;;
11699;SDS011;5906;51.660;6.674;2023-04-01T05:59:46;8.40;;;7.10;;
11699;SDS011;5906;51.660;6.674;2023-04-01T06:02:14;8.67;;;6.70;;
11699;SDS011;5906;51.660;6.674;2023-04-01T06:04:43;11.73;;;7.17;;
11699;SDS011;5906;51.660;6.674;2023-04-01T06:07:12;10.03;;;6.63;;
11699;SDS011;5906;51.660;6.674;2023-04-01T06:09:43;7.77;;;6.57;;
11699;SDS011;5906;51.660;6.674;2023-04-01T06:27:13;9.20;;;7.00;;
11699;SDS011;5906;51.660;6.674;2023-04-01T06:44:47;13.57;;;5.73;;
11699;SDS011;5906;51.660;6.674;2023-04-01T06:48:13;7.37;;;5.40;;
11699;SDS011;5906;51.660;6.674;2023-04-01T06:50:30;6.83;;;5.63;;
11699;SDS011;5906;51.660;6.674;2023-04-01T06:56:09;12.60;;;6.40;;
11699;SDS011;5906;51.660;6.674;2023-04-01T07:01:57;6.20;;;5.10;;
11699;SDS011;5906;51.660;6.674;2023-04-01T07:04:13;9.13;;;5.77;;
11699;SDS011;5906;51.660;6.674;2023-04-01T07:06:45;6.10;;;5.50;;
11699;SDS011;5906;51.660;6.674;2023-04-01T07:09:18;7.17;;;5.77;;
11699;SDS011;5906;51.660;6.674;2023-04-01T07:11:48;7.07;;;5.43;;
11699;SDS011;5906;51.660;6.674;2023-04-01T07:14:19;6.20;;;5.40;;
11699;SDS011;5906;51.660;6.674;2023-04-01T07:17:14;5.57;;;4.70;;
11699;SDS011;5906;51.660;6.674;2023-04-01T07:19:57;6.03;;;5.00;;
11699;SDS011;5906;51.660;6.674;2023-04-01T07:22:42;7.37;;;5.73;;
11699;SDS011;5906;51.660;6.674;2023-04-01T07:25:20;8.90;;;5.50;;
11699;SDS011;5906;51.660;6.674;2023-04-01T07:28:03;8.30;;;6.43;;
11699;SDS011;5906;51.660;6.674;2023-04-01T07:30:41;7.30;;;5.37;;
11699;SDS011;5906;51.660;6.674;2023-04-01T07:36:03;11.33;;;5.93;;
11699;SDS011;5906;51.660;6.674;2023-04-01T07:38:58;14.40;;;6.47;;
11699;SDS011;5906;51.660;6.674;2023-04-01T07:44:41;8.10;;;6.07;;
11699;SDS011;5906;51.660;6.674;2023-04-01T07:47:30;9.90;;;7.40;;
11699;SDS011;5906;51.660;6.674;2023-04-01T07:50:28;9.97;;;6.87;;
11699;SDS011;5906;51.660;6.674;2023-04-01T07:55:40;12.67;;;7.30;;
11699;SDS011;5906;51.660;6.674;2023-04-01T08:01:45;10.90;;;7.30;;
11699;SDS011;5906;51.660;6.674;2023-04-01T08:16:06;14.37;;;9.20;;
11699;SDS011;5906;51.660;6.674;2023-04-01T08:20:51;17.30;;;9.17;;
11699;SDS011;5906;51.660;6.674;2023-04-01T08:23:28;17.03;;;9.37;;
11699;SDS011;5906;51.660;6.674;2023-04-01T08:26:04;14.03;;;8.17;;
11699;SDS011;5906;51.660;6.674;2023-04-01T08:28:38;15.17;;;7.40;;
11699;SDS011;5906;51.660;6.674;2023-04-01T08:34:36;13.17;;;8.03;;
11699;SDS011;5906;51.660;6.674;2023-04-01T08:37:15;13.50;;;7.70;;
11699;SDS011;5906;51.660;6.674;2023-04-01T08:39:51;14.70;;;9.43;;
11699;SDS011;5906;51.660;6.674;2023-04-01T08:42:41;13.93;;;8.70;;
11699;SDS011;5906;51.660;6.674;2023-04-01T08:56:34;10.70;;;7.70;;
11699;SDS011;5906;51.660;6.674;2023-04-01T08:59:34;12.10;;;7.97;;
11699;SDS011;5906;51.660;6.674;2023-04-01T10:08:57;6.00;;;4.63;;
11699;SDS011;5906;51.660;6.674;2023-04-01T10:42:20;5.83;;;4.80;;
11699;SDS011;5906;51.660;6.674;2023-04-01T10:54:26;7.97;;;5.07;;
11699;SDS011;5906;51.660;6.674;2023-04-01T11:11:35;10.10;;;5.80;;
11699;SDS011;5906;51.660;6.674;2023-04-01T11:20:24;10.80;;;5.70;;
11699;SDS011;5906;51.660;6.674;2023-04-01T11:23:29;8.30;;;5.40;;
11699;SDS011;5906;51.660;6.674;2023-04-01T11:26:33;9.77;;;6.30;;
11699;SDS011;5906;51.660;6.674;2023-04-01T11:32:46;12.27;;;6.97;;
11699;SDS011;5906;51.660;6.674;2023-04-01T11:38:54;12.80;;;8.00;;
11699;SDS011;5906;51.660;6.674;2023-04-01T11:41:39;13.30;;;7.83;;
11699;SDS011;5906;51.660;6.674;2023-04-01T11:49:53;11.30;;;7.20;;
11699;SDS011;5906;51.660;6.674;2023-04-01T11:52:43;11.37;;;8.10;;
11699;SDS011;5906;51.660;6.674;2023-04-01T11:58:28;11.33;;;7.07;;
11699;SDS011;5906;51.660;6.674;2023-04-01T12:12:27;11.20;;;6.60;;
11699;SDS011;5906;51.660;6.674;2023-04-01T12:18:48;9.57;;;6.10;;
11699;SDS011;5906;51.660;6.674;2023-04-01T12:26:59;9.73;;;6.77;;
11699;SDS011;5906;51.660;6.674;2023-04-01T13:19:59;8.63;;;5.73;;
11699;SDS011;5906;51.660;6.674;2023-04-01T13:28:11;7.70;;;5.50;;
11699;SDS011;5906;51.660;6.674;2023-04-01T13:31:05;8.23;;;6.37;;
11699;SDS011;5906;51.660;6.674;2023-04-01T13:44:37;8.90;;;6.50;;
11699;SDS011;5906;51.660;6.674;2023-04-01T13:50:16;10.10;;;7.23;;
11699;SDS011;5906;51.660;6.674;2023-04-01T13:58:39;11.00;;;7.47;;
11699;SDS011;5906;51.660;6.674;2023-04-01T14:06:48;9.33;;;6.70;;
11699;SDS011;5906;51.660;6.674;2023-04-01T14:09:25;9.87;;;6.97;;
11699;SDS011;5906;51.660;6.674;2023-04-01T14:30:14;11.20;;;8.27;;
11699;SDS011;5906;51.660;6.674;2023-04-01T14:33:06;11.97;;;6.30;;
11699;SDS011;5906;51.660;6.674;2023-04-01T14:41:25;10.10;;;6.37;;
11699;SDS011;5906;51.660;6.674;2023-04-01T14:50:03;7.73;;;5.20;;
11699;SDS011;5906;51.660;6.674;2023-04-01T14:52:31;9.00;;;6.13;;
11699;SDS011;5906;51.660;6.674;2023-04-01T14:55:15;6.87;;;5.13;;
11699;SDS011;5906;51.660;6.674;2023-04-01T14:58:26;8.67;;;5.17;;
11699;SDS011;5906;51.660;6.674;2023-04-01T15:00:56;5.90;;;5.13;;
11699;SDS011;5906;51.660;6.674;2023-04-01T15:25:54;10.00;;;5.70;;
11699;SDS011;5906;51.660;6.674;2023-04-01T15:50:51;7.63;;;5.90;;
11699;SDS011;5906;51.660;6.674;2023-04-01T16:02:31;6.50;;;5.50;;
11699;SDS011;5906;51.660;6.674;2023-04-01T16:16:49;6.90;;;5.30;;
11699;SDS011;5906;51.660;6.674;2023-04-01T16:22:21;6.43;;;4.93;;
11699;SDS011;5906;51.660;6.674;2023-04-01T16:30:34;5.40;;;4.70;;
11699;SDS011;5906;51.660;6.674;2023-04-01T16:36:22;5.30;;;4.20;;
11699;SDS011;5906;51.660;6.674;2023-04-01T16:42:34;6.57;;;4.37;;
11699;SDS011;5906;51.660;6.674;2023-04-01T16:48:13;7.33;;;5.23;;
11699;SDS011;5906;51.660;6.674;2023-04-01T16:56:04;6.33;;;5.00;;
11699;SDS011;5906;51.660;6.674;2023-04-01T17:01:24;5.70;;;4.80;;
11699;SDS011;5906;51.660;6.674;2023-04-01T17:04:06;6.73;;;5.03;;
11699;SDS011;5906;51.660;6.674;2023-04-01T17:06:44;7.73;;;5.13;;
11699;SDS011;5906;51.660;6.674;2023-04-01T17:12:04;6.60;;;5.43;;
11699;SDS011;5906;51.660;6.674;2023-04-01T17:25:57;6.30;;;5.10;;
11699;SDS011;5906;51.660;6.674;2023-04-01T17:28:58;7.03;;;5.30;;
11699;SDS011;5906;51.660;6.674;2023-04-01T17:39:53;7.80;;;4.93;;
11699;SDS011;5906;51.660;6.674;2023-04-01T17:48:21;5.10;;;3.90;;
11699;SDS011;5906;51.660;6.674;2023-04-01T18:04:55;6.00;;;5.40;;
11699;SDS011;5906;51.660;6.674;2023-04-01T18:22:17;3.63;;;3.33;;
11699;SDS011;5906;51.660;6.674;2023-04-01T18:27:29;3.80;;;3.50;;
11699;SDS011;5906;51.660;6.674;2023-04-01T18:35:53;4.53;;;3.80;;
11699;SDS011;5906;51.660;6.674;2023-04-01T18:39:00;4.70;;;4.30;;
11699;SDS011;5906;51.660;6.674;2023-04-01T18:41:35;4.23;;;3.83;;
11699;SDS011;5906;51.660;6.674;2023-04-01T18:44:18;4.27;;;3.87;;
11699;SDS011;5906;51.660;6.674;2023-04-01T18:47:24;3.63;;;3.20;;
11699;SDS011;5906;51.660;6.674;2023-04-01T18:53:26;3.70;;;3.40;;
11699;SDS011;5906;51.660;6.674;2023-04-01T18:56:37;4.33;;;3.33;;
11699;SDS011;5906;51.660;6.674;2023-04-01T19:02:17;4.93;;;4.53;;
11699;SDS011;5906;51.660;6.674;2023-04-01T19:05:14;3.93;;;3.53;;
11699;SDS011;5906;51.660;6.674;2023-04-01T19:07:54;3.57;;;3.27;;
11699;SDS011;5906;51.660;6.674;2023-04-01T19:24:33;3.80;;;3.50;;
11699;SDS011;5906;51.660;6.674;2023-04-01T19:41:12;3.93;;;3.63;;
11699;SDS011;5906;51.660;6.674;2023-04-01T19:46:51;3.80;;;3.50;;
11699;SDS011;5906;51.660;6.674;2023-04-01T19:52:09;4.30;;;3.90;;
11699;SDS011;5906;51.660;6.674;2023-04-01T19:58:36;3.77;;;3.47;;
11699;SDS011;5906;51.660;6.674;2023-04-01T20:01:22;4.40;;;4.00;;
11699;SDS011;5906;51.660;6.674;2023-04-01T20:04:13;4.60;;;4.20;;
11699;SDS011;5906;51.660;6.674;2023-04-01T20:12:11;3.70;;;3.40;;
11699;SDS011;5906;51.660;6.674;2023-04-01T20:15:03;4.40;;;4.00;;
11699;SDS011;5906;51.660;6.674;2023-04-01T20:17:46;4.10;;;3.77;;
11699;SDS011;5906;51.660;6.674;2023-04-01T20:20:19;3.93;;;3.60;;
11699;SDS011;5906;51.660;6.674;2023-04-01T20:33:01;4.70;;;4.30;;
11699;SDS011;5906;51.660;6.674;2023-04-01T20:41:31;4.73;;;4.33;;
11699;SDS011;5906;51.660;6.674;2023-04-01T20:44:06;4.97;;;4.30;;
11699;SDS011;5906;51.660;6.674;2023-04-01T21:03:00;4.93;;;4.53;;
11699;SDS011;5906;51.660;6.674;2023-04-01T21:17:05;6.20;;;4.60;;
11699;SDS011;5906;51.660;6.674;2023-04-01T21:33:54;6.93;;;5.83;;
11699;SDS011;5906;51.660;6.674;2023-04-01T21:47:39;6.37;;;5.70;;
11699;SDS011;5906;51.660;6.674;2023-04-01T22:02:26;7.93;;;6.13;;
11699;SDS011;5906;51.660;6.674;2023-04-01T22:05:09;6.40;;;5.53;;
11699;SDS011;5906;51.660;6.674;2023-04-01T22:24:33;5.57;;;5.07;;
11699;SDS011;5906;51.660;6.674;2023-04-01T22:27:17;6.13;;;5.33;;
11699;SDS011;5906;51.660;6.674;2023-04-01T22:32:41;6.90;;;6.30;;
11699;SDS011;5906;51.660;6.674;2023-04-01T22:43:39;5.70;;;5.10;;
11699;SDS011;5906;51.660;6.674;2023-04-01T22:46:20;5.20;;;4.70;;
11699;SDS011;5906;51.660;6.674;2023-04-01T22:51:54;5.47;;;5.00;;
11699;SDS011;5906;51.660;6.674;2023-04-01T22:59:44;5.77;;;5.27;;
11699;SDS011;5906;51.660;6.674;2023-04-01T23:02:33;4.70;;;4.30;;
11699;SDS011;5906;51.660;6.674;2023-04-01T23:05:05;5.33;;;4.83;;
11699;SDS011;5906;51.660;6.674;2023-04-01T23:07:56;5.17;;;4.70;;
11699;SDS011;5906;51.660;6.674;2023-04-01T23:10:50;4.60;;;4.20;;
11699;SDS011;5906;51.660;6.674;2023-04-01T23:13:26;5.40;;;5.00;;
11699;SDS011;5906;51.660;6.674;2023-04-01T23:16:01;4.03;;;3.73;;
11699;SDS011;5906;51.660;6.674;2023-04-01T23:18:35;8.83;;;4.20;;
11699;SDS011;5906;51.660;6.674;2023-04-01T23:38:15;4.67;;;4.27;;
11699;SDS011;5906;51.660;6.674;2023-04-01T23:40:44;4.70;;;4.30;;
11699;SDS011;5906;51.660;6.674;2023-04-01T23:43:30;4.77;;;4.40;;
11699;SDS011;5906;51.660;6.674;2023-04-01T23:46:02;4.13;;;3.83;;
11699;SDS011;5906;51.660;6.674;2023-04-01T23:48:35;4.27;;;3.97;;
11699;SDS011;5906;51.660;6.674;2023-04-01T23:51:19;4.50;;;4.20;;
11699;SDS011;5906;51.660;6.674;2023-04-01T23:53:56;4.83;;;4.43;;
11699;SDS011;5906;51.660;6.674;2023-04-01T23:59:28;5.33;;;4.17;;
